Time;durP1;ratioP1;P1;durP2;ratioP2;P2;SDS_P1;SDS_P2;PMS_P1;PMS_P2;Temp;Humidity;BMP_temperature;BMP_pressure;BME280_temperature;BME280_humidity;BME280_pressure;Samples;Min_cycle;Max_cycle;Signal;HPM_P1;HPM_P2
2022/04/06 00:01:48;;;;;;;;;;;;;;;7.48;58.99;99411.19;5008486;28;19918;-81
2022/04/06 00:04:14;;;;;;;;;;;;;;;7.56;59.13;99404.09;5009195;28;19936;-81
2022/04/06 00:06:39;;;;;;;;;;;;;;;7.54;58.87;99398.00;4997222;28;20319;-81
2022/04/06 00:09:05;;;;;;;;;;;;;;;7.50;59.24;99399.75;4988618;28;19922;-81
2022/04/06 00:11:30;;;;;;;;;;;;;;;7.52;58.82;99402.38;5003987;28;19922;-82
2022/04/06 00:13:56;;;;;;;;;;;;;;;7.63;58.82;99403.19;4989314;28;19964;-81
2022/04/06 00:16:21;;;;;;;;;;;;;;;7.56;59.26;99409.34;4988689;28;20408;-82
2022/04/06 00:18:47;;;;;;;;;;;;;;;7.47;59.38;99407.66;4994234;28;19929;-82
2022/04/06 00:21:12;;;;;;;;;;;;;;;7.49;59.59;99410.28;5008073;28;20407;-82
2022/04/06 00:23:38;;;;;;;;;;;;;;;7.47;59.79;99406.81;4996677;28;19983;-82
2022/04/06 00:26:04;;;;;;;;;;;;;;;7.49;59.47;99413.78;4986068;28;20673;-82
2022/04/06 00:28:30;;;;;;;;;;;;;;;7.41;59.49;99412.09;4969358;28;19922;-82
2022/04/06 00:30:55;;;;;;;;;;;;;;;7.35;59.90;99416.50;4968106;28;19925;-82
2022/04/06 00:33:21;;;;;;;;;;;;;;;7.40;59.83;99420.84;4984374;28;20024;-82
2022/04/06 00:35:46;;;;;;;;;;;;;;;7.30;59.74;99412.16;4994313;28;20408;-83
2022/04/06 00:38:11;;;;;;;;;;;;;;;7.41;59.18;99412.09;4998271;28;20319;-82
2022/04/06 00:40:37;;;;;;;;;;;;;;;7.44;59.20;99410.31;5006853;28;19928;-82
2022/04/06 00:43:06;;;;;;;;;;;;;;;7.40;58.85;99410.34;5006064;28;19930;-82
2022/04/06 00:45:32;;;;;;;;;;;;;;;7.22;59.44;99411.34;4998111;28;20396;-82
2022/04/06 00:47:57;;;;;;;;;;;;;;;7.22;59.46;99420.06;5019884;28;19933;-82
2022/04/06 00:50:23;;;;;;;;;;;;;;;7.26;59.08;99421.81;4998684;28;19952;-81
2022/04/06 00:52:50;;;;;;;;;;;;;;;7.12;59.44;99423.63;5007688;28;19922;-82
2022/04/06 00:55:16;;;;;;;;;;;;;;;7.08;59.88;99420.16;5005696;28;19926;-82
2022/04/06 00:57:41;;;;;;;;;;;;;;;7.04;59.76;99422.78;5022907;28;19928;-81
2022/04/06 01:00:08;;;;;;;;;;;;;;;7.02;60.24;99425.44;5000028;28;20435;-81
2022/04/06 01:02:33;;;;;;;;;;;;;;;6.93;60.71;99426.34;4988037;28;19980;-82
2022/04/06 01:04:59;;;;;;;;;;;;;;;6.93;61.26;99421.09;4994160;28;19925;-81
2022/04/06 01:07:25;;;;;;;;;;;;;;;7.01;62.43;99425.44;5007442;28;20059;-82
2022/04/06 01:09:51;;;;;;;;;;;;;;;6.73;61.81;99429.03;5002274;28;19922;-81
2022/04/06 01:12:16;;;;;;;;;;;;;;;6.53;61.77;99433.47;4987807;28;19933;-81
2022/04/06 01:14:42;;;;;;;;;;;;;;;6.64;61.81;99423.81;4994600;28;19963;-82
2022/04/06 01:17:08;;;;;;;;;;;;;;;6.40;63.04;99424.78;4991626;28;19933;-81
2022/04/06 01:19:35;;;;;;;;;;;;;;;6.51;62.84;99425.63;4999022;28;19922;-82
2022/04/06 01:22:01;;;;;;;;;;;;;;;6.62;62.64;99422.97;5014128;28;19933;-81
2022/04/06 01:24:26;;;;;;;;;;;;;;;6.62;62.80;99422.97;4991711;28;20324;-81
2022/04/06 01:26:52;;;;;;;;;;;;;;;6.68;62.68;99422.94;4996732;28;19933;-81
2022/04/06 01:29:18;;;;;;;;;;;;;;;6.75;62.82;99419.44;4988217;28;19972;-81
2022/04/06 01:31:43;;;;;;;;;;;;;;;6.50;64.66;99428.25;4999464;28;20419;-81
2022/04/06 01:34:08;;;;;;;;;;;;;;;6.64;64.69;99431.69;4995123;28;19922;-81
2022/04/06 01:36:33;;;;;;;;;;;;;;;6.65;64.61;99430.81;4996227;28;20415;-81
2022/04/06 01:38:59;;;;;;;;;;;;;;;6.49;65.69;99435.25;5001798;28;20028;-81
2022/04/06 01:41:34;;;;;;;;;;;;;;;6.61;65.35;99437.84;4968339;28;20005;-82
2022/04/06 01:43:59;;;;;;;;;;;;;;;6.79;64.62;99441.25;4990093;28;20018;-81
2022/04/06 01:46:25;;;;;;;;;;;;;;;6.86;64.27;99440.38;5007493;28;19952;-81
2022/04/06 01:54:21;;;;;;;;;;;;;;;6.79;63.86;99449.97;5001805;28;19975;-81
2022/04/06 01:56:46;;;;;;;;;;;;;;;6.78;64.13;99450.00;4993158;28;19926;-81
2022/04/06 01:59:12;;;;;;;;;;;;;;;6.78;63.99;99447.38;5022328;28;20406;-83
2022/04/06 02:01:37;;;;;;;;;;;;;;;6.95;63.22;99444.69;4990591;28;19986;-82
2022/04/06 02:04:06;;;;;;;;;;;;;;;6.80;63.14;99445.63;5001800;28;20363;-82
2022/04/06 02:06:32;;;;;;;;;;;;;;;6.75;62.96;99444.75;5003578;28;19980;-83
2022/04/06 02:08:57;;;;;;;;;;;;;;;6.71;63.08;99454.41;5010706;28;20388;-82
2022/04/06 02:11:23;;;;;;;;;;;;;;;6.66;63.66;99447.41;5005990;28;19922;-82
2022/04/06 02:13:48;;;;;;;;;;;;;;;6.76;63.05;99449.13;4991807;28;20388;-82
2022/04/06 02:16:13;;;;;;;;;;;;;;;6.82;62.98;99451.72;5000292;28;19946;-82
2022/04/06 02:18:39;;;;;;;;;;;;;;;6.75;62.88;99447.38;5015981;28;19980;-81
2022/04/06 02:21:04;;;;;;;;;;;;;;;6.77;62.80;99449.13;5010210;28;19964;-82
2022/04/06 02:23:29;;;;;;;;;;;;;;;6.52;63.42;99457.94;5010205;28;20335;-81
2022/04/06 02:25:55;;;;;;;;;;;;;;;6.47;64.16;99454.47;5025589;28;20408;-82
2022/04/06 02:28:20;;;;;;;;;;;;;;;6.62;63.41;99459.66;5024692;28;19921;-82
2022/04/06 02:30:45;;;;;;;;;;;;;;;6.68;63.29;99464.03;5009373;28;19929;-82
2022/04/06 02:33:11;;;;;;;;;;;;;;;6.60;63.22;99458.81;5009578;28;19925;-81
2022/04/06 02:35:36;;;;;;;;;;;;;;;6.53;63.60;99457.94;5009696;28;19996;-82
2022/04/06 02:38:01;;;;;;;;;;;;;;;6.53;63.51;99464.94;5010125;28;19965;-82
2022/04/06 02:40:27;;;;;;;;;;;;;;;6.62;62.64;99462.28;4991999;28;20458;-82
2022/04/06 02:42:52;;;;;;;;;;;;;;;6.63;62.69;99470.16;5022001;28;20356;-82
2022/04/06 02:45:17;;;;;;;;;;;;;;;6.32;63.98;99466.72;4990392;28;20301;-82
2022/04/06 02:47:42;;;;;;;;;;;;;;;6.31;63.58;99474.59;4994023;28;19929;-81
2022/04/06 02:50:08;;;;;;;;;;;;;;;6.34;62.84;99470.19;5009462;28;19992;-82
2022/04/06 02:52:33;;;;;;;;;;;;;;;5.95;63.04;99478.91;5004016;28;20384;-82
2022/04/06 02:54:59;;;;;;;;;;;;;;;5.98;63.38;99485.06;4989115;28;19921;-81
2022/04/06 02:57:24;;;;;;;;;;;;;;;6.03;63.15;99482.47;4989671;28;19972;-82
2022/04/06 02:59:49;;;;;;;;;;;;;;;6.20;62.24;99477.22;4986907;28;20392;-81
2022/04/06 03:02:14;;;;;;;;;;;;;;;5.92;62.79;99487.66;4986508;28;19979;-82
2022/04/06 03:04:40;;;;;;;;;;;;;;;5.82;62.85;99480.66;4989055;28;20017;-83
2022/04/06 03:07:05;;;;;;;;;;;;;;;5.91;63.13;99488.53;5002512;28;19931;-83
2022/04/06 03:09:30;;;;;;;;;;;;;;;5.85;63.97;99485.91;4991677;28;20316;-83
2022/04/06 03:11:56;;;;;;;;;;;;;;;6.06;63.21;99485.94;4989231;28;19928;-81
2022/04/06 03:14:21;;;;;;;;;;;;;;;6.11;62.91;99487.69;4989980;28;19928;-82
2022/04/06 03:16:47;;;;;;;;;;;;;;;6.01;63.15;99485.06;5021399;28;20431;-82
2022/04/06 03:19:12;;;;;;;;;;;;;;;6.04;62.65;99487.69;5016509;28;19926;-83
2022/04/06 03:21:37;;;;;;;;;;;;;;;6.07;63.14;99492.03;5008232;28;19921;-82
2022/04/06 03:24:02;;;;;;;;;;;;;;;5.95;63.37;99492.91;4991496;28;19949;-82
2022/04/06 03:26:28;;;;;;;;;;;;;;;5.96;63.74;99491.13;4996447;28;19929;-81
2022/04/06 03:28:53;;;;;;;;;;;;;;;5.99;63.93;99493.78;5002863;28;20736;-81
2022/04/06 03:31:18;;;;;;;;;;;;;;;6.06;63.54;99496.41;5007872;28;19917;-80
2022/04/06 03:33:44;;;;;;;;;;;;;;;5.90;64.52;99495.50;5007998;28;19945;-81
2022/04/06 03:36:09;;;;;;;;;;;;;;;5.91;64.62;99483.28;5024079;28;19925;-80
2022/04/06 03:38:34;;;;;;;;;;;;;;;6.02;64.16;99499.03;4998519;28;19925;-81
2022/04/06 03:41:00;;;;;;;;;;;;;;;6.12;63.22;99492.94;4989132;28;19996;-79
2022/04/06 03:43:25;;;;;;;;;;;;;;;5.77;62.64;99503.34;5002824;28;19925;-79
2022/04/06 03:45:50;;;;;;;;;;;;;;;5.64;62.47;99500.72;4991375;28;19972;-80
2022/04/06 03:48:16;;;;;;;;;;;;;;;5.37;63.01;99504.13;4989873;28;20300;-80
2022/04/06 03:50:41;;;;;;;;;;;;;;;5.45;63.65;99509.38;4994027;28;19925;-79
2022/04/06 03:53:06;;;;;;;;;;;;;;;5.44;63.90;99518.97;5007093;28;19932;-81
2022/04/06 03:55:32;;;;;;;;;;;;;;;5.59;63.92;99527.72;5008394;28;20626;-81
2022/04/06 03:57:57;;;;;;;;;;;;;;;5.74;63.69;99527.75;5008337;28;19917;-81
2022/04/06 04:00:22;;;;;;;;;;;;;;;5.77;63.76;99519.06;5006228;28;19921;-81
2022/04/06 04:02:48;;;;;;;;;;;;;;;5.69;63.81;99526.88;4989798;28;20016;-80
2022/04/06 04:05:13;;;;;;;;;;;;;;;5.69;63.64;99521.66;4987916;28;20051;-81
2022/04/06 04:07:39;;;;;;;;;;;;;;;5.74;64.03;99535.63;4989020;28;20016;-82
2022/04/06 04:10:08;;;;;;;;;;;;;;;5.71;65.05;99530.38;4987818;28;20973;-81
2022/04/06 04:12:34;;;;;;;;;;;;;;;5.95;64.32;99528.66;5000048;28;19926;-81
2022/04/06 04:14:59;;;;;;;;;;;;;;;6.00;62.34;99526.97;4991704;28;19922;-81
2022/04/06 04:17:25;;;;;;;;;;;;;;;5.81;60.21;99537.38;4987780;28;20404;-81
2022/04/06 04:19:50;;;;;;;;;;;;;;;5.54;60.61;99540.78;4988652;28;19922;-81
2022/04/06 04:22:15;;;;;;;;;;;;;;;5.64;61.32;99546.91;4990574;28;20408;-81
2022/04/06 04:24:41;;;;;;;;;;;;;;;6.11;60.74;99546.19;5007762;28;19928;-81
2022/04/06 04:27:07;;;;;;;;;;;;;;;6.48;60.27;99547.94;4997312;28;19925;-81
2022/04/06 04:29:32;;;;;;;;;;;;;;;6.80;59.38;99559.25;4997470;28;19921;-82
2022/04/06 04:31:58;;;;;;;;;;;;;;;7.12;58.58;99565.28;4987229;28;19933;-81
2022/04/06 04:34:23;;;;;;;;;;;;;;;7.44;58.14;99564.28;5019858;28;20363;-81
2022/04/06 04:36:48;;;;;;;;;;;;;;;7.66;57.41;99560.69;5019286;28;19929;-81
2022/04/06 04:39:14;;;;;;;;;;;;;;;7.67;56.97;99565.03;4990265;28;19917;-81
2022/04/06 04:41:39;;;;;;;;;;;;;;;7.64;57.72;99564.19;5007602;28;20736;-82
2022/04/06 04:44:05;;;;;;;;;;;;;;;7.77;57.59;99567.63;4998567;28;20376;-82
2022/04/06 04:46:30;;;;;;;;;;;;;;;7.65;58.31;99571.22;4988209;28;20323;-82
2022/04/06 04:48:55;;;;;;;;;;;;;;;7.57;59.07;99572.97;4980401;28;19926;-81
2022/04/06 04:51:21;;;;;;;;;;;;;;;7.66;59.35;99573.81;4973866;28;19926;-82
2022/04/06 04:53:46;;;;;;;;;;;;;;;7.56;60.04;99572.09;4988422;28;19928;-82
2022/04/06 04:56:11;;;;;;;;;;;;;;;7.48;60.76;99573.91;4987134;28;19972;-81
2022/04/06 04:58:37;;;;;;;;;;;;;;;7.54;60.58;99581.75;4977898;28;20494;-82
2022/04/06 05:01:02;;;;;;;;;;;;;;;7.27;61.24;99577.47;4981087;28;19921;-82
2022/04/06 05:03:28;;;;;;;;;;;;;;;7.39;61.83;99587.06;4978492;28;19933;-82
2022/04/06 05:05:56;;;;;;;;;;;;;;;7.46;61.67;99583.53;4979862;28;20032;-83
2022/04/06 05:08:21;;;;;;;;;;;;;;;7.58;61.35;99585.22;4980790;28;20070;-82
2022/04/06 05:10:47;;;;;;;;;;;;;;;7.46;61.65;99586.16;4987929;28;20017;-81
2022/04/06 05:13:14;;;;;;;;;;;;;;;7.60;61.83;99579.09;4972928;28;19922;-80
2022/04/06 05:15:39;;;;;;;;;;;;;;;7.71;61.89;99579.91;4968574;28;19922;-81
2022/04/06 05:18:05;;;;;;;;;;;;;;;7.74;62.21;99589.53;4983209;28;19932;-80
2022/04/06 05:20:30;;;;;;;;;;;;;;;7.87;61.51;99590.34;4993634;28;20381;-82
2022/04/06 05:22:56;;;;;;;;;;;;;;;7.98;62.43;99598.16;4981080;28;19914;-81
2022/04/06 05:25:21;;;;;;;;;;;;;;;8.17;62.24;99604.16;4986409;28;20348;-80
2022/04/06 05:27:50;;;;;;;;;;;;;;;7.83;63.38;99601.72;4982961;28;19929;-81
2022/04/06 05:30:17;;;;;;;;;;;;;;;8.29;62.86;99601.44;4982899;28;19997;-80
2022/04/06 05:32:43;;;;;;;;;;;;;;;8.31;63.06;99604.06;4980410;28;19929;-81
2022/04/06 05:35:09;;;;;;;;;;;;;;;8.52;62.42;99608.31;4981780;28;19918;-81
2022/04/06 05:37:35;;;;;;;;;;;;;;;8.62;62.01;99604.75;4986866;28;19926;-83
2022/04/06 05:40:01;;;;;;;;;;;;;;;8.52;60.39;99605.69;4990435;28;20361;-83
2022/04/06 05:42:26;;;;;;;;;;;;;;;8.57;61.54;99606.53;5002782;28;19922;-82
2022/04/06 05:44:51;;;;;;;;;;;;;;;9.03;60.97;99600.84;5009497;28;19922;-83
2022/04/06 05:47:17;;;;;;;;;;;;;;;9.26;59.30;99605.00;5010756;28;19921;-82
2022/04/06 05:49:42;;;;;;;;;;;;;;;9.65;60.24;99613.31;4990820;28;19980;-83
2022/04/06 05:52:09;;;;;;;;;;;;;;;10.07;57.33;99607.47;4974267;28;19926;-83
2022/04/06 05:54:35;;;;;;;;;;;;;;;10.02;56.94;99605.81;4980147;28;19925;-83
2022/04/06 05:57:00;;;;;;;;;;;;;;;10.42;58.11;99608.75;4981181;28;19922;-83
2022/04/06 05:59:25;;;;;;;;;;;;;;;10.51;54.99;99600.69;4978237;28;19932;-83
2022/04/06 06:01:51;;;;;;;;;;;;;;;11.01;57.29;99614.78;4972457;28;19925;-82
2022/04/06 06:04:16;;;;;;;;;;;;;;;11.31;54.32;99607.19;4978879;28;19996;-83
2022/04/06 06:06:41;;;;;;;;;;;;;;;11.67;52.84;99610.00;4991092;28;19922;-82
2022/04/06 06:09:07;;;;;;;;;;;;;;;11.99;51.83;99605.84;4973665;28;19933;-81
2022/04/06 06:11:32;;;;;;;;;;;;;;;12.32;52.61;99600.66;4971917;28;19973;-81
2022/04/06 06:13:57;;;;;;;;;;;;;;;12.51;51.92;99603.72;4989463;28;19930;-82
2022/04/06 06:16:24;;;;;;;;;;;;;;;12.90;49.32;99611.59;4989906;28;19925;-82
2022/04/06 06:18:50;;;;;;;;;;;;;;;12.93;47.77;99600.03;4992275;28;19928;-83
2022/04/06 06:21:15;;;;;;;;;;;;;;;12.53;47.08;99604.59;4990686;28;19922;-81
2022/04/06 06:23:40;;;;;;;;;;;;;;;12.60;47.94;99603.50;4986550;28;19976;-81
2022/04/06 06:26:06;;;;;;;;;;;;;;;13.11;48.15;99610.16;4979729;28;19954;-81
2022/04/06 06:28:31;;;;;;;;;;;;;;;13.49;47.27;99613.56;4971382;28;19973;-81
2022/04/06 06:30:56;;;;;;;;;;;;;;;13.46;45.60;99602.19;4988637;28;19929;-81
2022/04/06 06:33:22;;;;;;;;;;;;;;;13.48;44.00;99609.16;4990711;28;20512;-82
2022/04/06 06:35:47;;;;;;;;;;;;;;;13.05;45.65;99602.38;4990581;28;19928;-81
2022/04/06 06:38:12;;;;;;;;;;;;;;;13.04;45.75;99608.59;4990250;28;19925;-82
2022/04/06 06:40:38;;;;;;;;;;;;;;;13.40;47.33;99612.03;5006124;28;20017;-81
2022/04/06 06:43:03;;;;;;;;;;;;;;;13.98;46.46;99611.28;5005327;28;19961;-81
2022/04/06 06:45:28;;;;;;;;;;;;;;;13.67;44.63;99619.25;4989951;28;19932;-81
2022/04/06 06:47:54;;;;;;;;;;;;;;;13.78;45.45;99611.88;5005526;28;20467;-81
2022/04/06 06:50:19;;;;;;;;;;;;;;;14.26;43.02;99607.78;4990481;28;19922;-81
2022/04/06 06:52:45;;;;;;;;;;;;;;;13.86;43.19;99603.69;4990460;28;20399;-82
2022/04/06 06:55:11;;;;;;;;;;;;;;;13.94;44.51;99612.28;4989725;28;19918;-82
2022/04/06 06:57:36;;;;;;;;;;;;;;;14.40;44.21;99605.53;4989393;28;19922;-82
2022/04/06 07:00:03;;;;;;;;;;;;;;;14.59;42.01;99611.09;5004408;28;19918;-83
2022/04/06 07:02:29;;;;;;;;;;;;;;;14.63;42.21;99612.78;4989923;28;19922;-83
2022/04/06 07:04:54;;;;;;;;;;;;;;;14.40;43.64;99613.50;4989398;28;20431;-82
2022/04/06 07:07:19;;;;;;;;;;;;;;;14.91;44.60;99617.16;4990378;28;20403;-82
2022/04/06 07:09:44;;;;;;;;;;;;;;;15.09;41.97;99612.13;4989595;28;19925;-82
2022/04/06 07:12:10;;;;;;;;;;;;;;;15.25;40.61;99612.47;5005515;28;20373;-85
2022/04/06 07:14:36;;;;;;;;;;;;;;;15.36;39.97;99615.59;4989592;28;19917;-80
2022/04/06 07:17:01;;;;;;;;;;;;;;;15.69;40.23;99608.19;4989995;28;19926;-81
2022/04/06 07:19:27;;;;;;;;;;;;;;;16.36;38.94;99605.66;4989910;28;20008;-82
2022/04/06 07:21:52;;;;;;;;;;;;;;;16.76;39.46;99622.66;4990159;28;19922;-83
2022/04/06 07:24:18;;;;;;;;;;;;;;;16.50;37.54;99610.41;4989292;28;19926;-80
2022/04/06 07:26:44;;;;;;;;;;;;;;;16.99;36.95;99617.28;4988390;28;20429;-81
2022/04/06 07:29:11;;;;;;;;;;;;;;;17.26;37.56;99625.00;4989621;28;20391;-82
2022/04/06 07:31:39;;;;;;;;;;;;;;;17.87;35.61;99623.16;4989725;28;19937;-82
2022/04/06 07:34:05;;;;;;;;;;;;;;;17.94;35.56;99624.66;4989746;28;19917;-84
2022/04/06 07:36:32;;;;;;;;;;;;;;;17.93;35.97;99614.06;4988471;28;19936;-83
2022/04/06 07:38:58;;;;;;;;;;;;;;;18.36;34.07;99626.22;4988601;28;19932;-85
2022/04/06 07:41:25;;;;;;;;;;;;;;;18.40;35.62;99617.13;4987978;28;19918;-83
2022/04/06 07:43:50;;;;;;;;;;;;;;;18.50;36.69;99620.22;4989123;28;19922;-82
2022/04/06 07:46:16;;;;;;;;;;;;;;;18.88;34.53;99612.13;4988756;28;20495;-83
2022/04/06 07:48:41;;;;;;;;;;;;;;;18.75;33.34;99613.66;4989539;28;20347;-86
2022/04/06 07:51:07;;;;;;;;;;;;;;;19.06;34.38;99609.47;4989726;28;20285;-87
2022/04/06 07:53:32;;;;;;;;;;;;;;;19.16;34.42;99616.06;5003832;28;19917;-84
2022/04/06 07:55:57;;;;;;;;;;;;;;;18.94;34.38;99608.31;4988959;28;19922;-84
2022/04/06 07:58:24;;;;;;;;;;;;;;;19.41;34.16;99604.09;4989029;28;19976;-85
2022/04/06 08:00:49;;;;;;;;;;;;;;;19.12;33.82;99604.69;4988845;28;19930;-86
2022/04/06 08:03:15;;;;;;;;;;;;;;;19.35;33.06;99605.28;4989198;28;19922;-84
2022/04/06 08:05:40;;;;;;;;;;;;;;;19.40;33.90;99600.56;4989077;28;20290;-84
2022/04/06 08:08:05;;;;;;;;;;;;;;;19.11;33.71;99600.28;4988912;28;19921;-85
2022/04/06 08:10:31;;;;;;;;;;;;;;;19.16;36.28;99605.38;4988949;28;19926;-84
2022/04/06 08:12:56;;;;;;;;;;;;;;;19.59;34.04;99607.59;4988743;28;19960;-84
2022/04/06 08:15:22;;;;;;;;;;;;;;;20.24;31.51;99606.78;4988689;28;19925;-84
2022/04/06 08:17:49;;;;;;;;;;;;;;;20.26;32.78;99602.19;4988872;28;20488;-86
2022/04/06 08:20:15;;;;;;;;;;;;;;;20.43;30.66;99598.53;4988617;28;20016;-84
2022/04/06 08:22:41;;;;;;;;;;;;;;;20.42;31.91;99594.13;4988887;28;19941;-84
2022/04/06 08:25:07;;;;;;;;;;;;;;;20.76;30.74;99598.44;4988273;28;19985;-84
2022/04/06 08:27:36;;;;;;;;;;;;;;;20.54;31.81;99591.63;4988983;28;20459;-83
2022/04/06 08:30:02;;;;;;;;;;;;;;;20.65;32.52;99588.34;4988534;28;20680;-83
2022/04/06 08:32:28;;;;;;;;;;;;;;;20.69;31.84;99589.88;4988526;28;20017;-83
2022/04/06 08:34:53;;;;;;;;;;;;;;;20.72;32.40;99587.03;4988543;28;20013;-84
2022/04/06 08:37:18;;;;;;;;;;;;;;;20.49;31.08;99585.66;4988194;28;19921;-83
2022/04/06 08:39:43;;;;;;;;;;;;;;;20.52;31.56;99581.94;4988042;28;20376;-85
2022/04/06 08:42:10;;;;;;;;;;;;;;;20.39;30.84;99584.47;4979898;28;20427;-84
2022/04/06 08:44:35;;;;;;;;;;;;;;;20.11;28.54;99579.81;4993510;28;20796;-84
2022/04/06 08:47:05;;;;;;;;;;;;;;;20.32;28.18;99577.72;5020085;28;20004;-83
2022/04/06 08:49:31;;;;;;;;;;;;;;;20.52;27.78;99576.59;4984457;28;20009;-84
2022/04/06 08:51:56;;;;;;;;;;;;;;;20.42;29.62;99576.25;4979522;28;20016;-83
2022/04/06 08:54:24;;;;;;;;;;;;;;;20.92;28.71;99575.13;4988087;28;20025;-84
2022/04/06 08:56:49;;;;;;;;;;;;;;;20.27;29.52;99575.31;4987037;28;20463;-84
2022/04/06 08:59:15;;;;;;;;;;;;;;;20.56;28.37;99559.38;4985330;28;19949;-82
2022/04/06 09:01:40;;;;;;;;;;;;;;;20.73;28.13;99561.09;4979084;28;20012;-84
2022/04/06 09:04:05;;;;;;;;;;;;;;;20.35;28.42;99554.31;4967440;28;19922;-83
2022/04/06 09:06:39;;;;;;;;;;;;;;;19.87;28.99;99555.28;4968209;28;19922;-83
2022/04/06 09:09:04;;;;;;;;;;;;;;;19.72;29.96;99548.94;4970081;28;19961;-83
2022/04/06 09:11:39;;;;;;;;;;;;;;;20.03;28.89;99551.66;4968434;28;19959;-84
2022/04/06 09:14:04;;;;;;;;;;;;;;;19.97;29.29;99537.75;4967568;28;20021;-84
2022/04/06 09:16:31;;;;;;;;;;;;;;;20.15;28.44;99531.34;4985218;28;20511;-81
2022/04/06 09:19:05;;;;;;;;;;;;;;;20.38;27.98;99531.84;5019281;28;20305;-82
2022/04/06 09:21:31;;;;;;;;;;;;;;;20.41;27.59;99525.47;4986349;28;20403;-82
2022/04/06 09:23:58;;;;;;;;;;;;;;;20.48;28.50;99521.44;4987561;28;19922;-82
2022/04/06 09:26:24;;;;;;;;;;;;;;;20.10;28.92;99520.03;4986743;28;20399;-82
2022/04/06 09:28:50;;;;;;;;;;;;;;;19.92;29.14;99518.41;4987866;28;19922;-82
2022/04/06 09:31:16;;;;;;;;;;;;;;;19.98;28.84;99516.25;4986505;28;20404;-82
2022/04/06 09:33:43;;;;;;;;;;;;;;;19.99;28.90;99512.63;4988239;28;19925;-82
2022/04/06 09:36:19;;;;;;;;;;;;;;;19.65;28.08;99509.13;4986973;28;19926;-83
2022/04/06 09:38:46;;;;;;;;;;;;;;;19.56;31.17;99509.66;4987546;28;20025;-84
2022/04/06 09:41:14;;;;;;;;;;;;;;;20.11;31.82;99505.72;4987149;28;19972;-83
2022/04/06 09:43:40;;;;;;;;;;;;;;;20.22;30.39;99510.47;4987643;28;19929;-83
2022/04/06 09:49:18;;;;;;;;;;;;;;;20.44;30.77;99502.00;4987907;28;20419;-84
2022/04/06 09:51:45;;;;;;;;;;;;;;;20.75;30.36;99497.53;4987895;28;20006;-83
2022/04/06 09:54:14;;;;;;;;;;;;;;;20.87;29.50;99498.63;5002093;28;19921;-83
2022/04/06 09:56:40;;;;;;;;;;;;;;;21.03;28.91;99494.03;4988006;28;19921;-83
2022/04/06 09:59:06;;;;;;;;;;;;;;;20.72;28.99;99484.31;4987496;28;19925;-83
2022/04/06 10:01:33;;;;;;;;;;;;;;;20.87;29.94;99487.91;4987649;28;19918;-83
2022/04/06 10:04:01;;;;;;;;;;;;;;;20.84;30.07;99483.59;4987523;28;19914;-83
2022/04/06 10:06:26;;;;;;;;;;;;;;;20.86;29.92;99480.81;5002470;28;20323;-83
2022/04/06 10:08:53;;;;;;;;;;;;;;;20.81;29.30;99478.41;4989846;28;19925;-83
2022/04/06 10:11:18;;;;;;;;;;;;;;;20.47;29.48;99464.31;4991140;28;19914;-83
2022/04/06 10:13:44;;;;;;;;;;;;;;;20.49;27.64;99467.78;4990857;28;19928;-83
2022/04/06 10:16:12;;;;;;;;;;;;;;;20.63;28.48;99464.25;4991349;28;19926;-82
2022/04/06 10:18:38;;;;;;;;;;;;;;;20.74;28.54;99458.28;4991250;28;19922;-83
2022/04/06 10:21:13;;;;;;;;;;;;;;;20.70;27.51;99454.94;4990447;28;19926;-83
2022/04/06 10:23:42;;;;;;;;;;;;;;;20.44;26.75;99452.94;4979768;28;20389;-82
2022/04/06 10:26:22;;;;;;;;;;;;;;;20.58;26.80;99456.50;4971067;28;19926;-81
2022/04/06 10:28:49;;;;;;;;;;;;;;;20.36;26.19;99450.72;4974027;28;20387;-81
2022/04/06 10:31:19;;;;;;;;;;;;;;;20.38;25.33;99451.47;5005988;28;20328;-82
2022/04/06 10:33:45;;;;;;;;;;;;;;;20.22;25.66;99448.84;4971484;28;20302;-82
2022/04/06 10:36:18;;;;;;;;;;;;;;;20.12;26.36;99450.34;4985332;28;20004;-82
2022/04/06 10:39:19;;;;;;;;;;;;;;;20.33;25.25;99440.19;4982854;28;19936;-83
2022/04/06 10:42:02;;;;;;;;;;;;;;;20.74;23.82;99434.16;4987175;28;19980;-82
2022/04/06 10:44:38;;;;;;;;;;;;;;;20.74;21.62;99432.38;5002707;28;19926;-82
2022/04/06 10:47:07;;;;;;;;;;;;;;;20.46;22.51;99427.78;4988591;28;19922;-81
2022/04/06 10:49:32;;;;;;;;;;;;;;;20.52;23.81;99432.75;4973425;28;19976;-81
2022/04/06 10:51:59;;;;;;;;;;;;;;;20.72;22.77;99431.56;4971061;28;19926;-80
2022/04/06 10:54:27;;;;;;;;;;;;;;;20.72;22.57;99425.38;4975742;28;20519;-82
2022/04/06 10:56:53;;;;;;;;;;;;;;;20.73;20.55;99432.47;4983187;28;19929;-81
2022/04/06 10:59:23;;;;;;;;;;;;;;;21.20;19.88;99427.78;4990253;28;19921;-81
2022/04/06 11:01:48;;;;;;;;;;;;;;;20.86;21.98;99417.31;4990224;28;20349;-83
2022/04/06 11:04:20;;;;;;;;;;;;;;;21.19;21.52;99410.78;4989662;28;20029;-82
2022/04/06 11:06:49;;;;;;;;;;;;;;;21.08;23.75;99424.03;4989686;28;19926;-82
2022/04/06 11:12:11;;;;;;;;;;;;;;;20.87;23.77;99408.34;4989346;28;19928;-82
2022/04/06 11:14:36;;;;;;;;;;;;;;;21.19;23.75;99404.59;4990060;28;20095;-84
2022/04/06 11:17:21;;;;;;;;;;;;;;;21.41;23.77;99396.00;5021694;28;20423;-82
2022/04/06 11:19:49;;;;;;;;;;;;;;;21.57;24.40;99396.78;4988362;28;20331;-82
2022/04/06 11:22:15;;;;;;;;;;;;;;;21.11;23.44;99391.66;4989824;28;19928;-82
2022/04/06 11:24:40;;;;;;;;;;;;;;;21.38;23.24;99388.16;4988855;28;19918;-82
2022/04/06 11:27:05;;;;;;;;;;;;;;;21.30;23.10;99385.97;4989031;28;20308;-81
2022/04/06 11:29:35;;;;;;;;;;;;;;;21.40;23.48;99383.56;4989669;28;19926;-82
2022/04/06 11:32:04;;;;;;;;;;;;;;;21.49;23.09;99382.09;4989830;28;19933;-82
2022/04/06 11:34:29;;;;;;;;;;;;;;;21.14;23.19;99386.09;4987759;28;20392;-82
2022/04/06 11:36:56;;;;;;;;;;;;;;;21.22;21.89;99373.06;4988631;28;19921;-82
2022/04/06 11:39:22;;;;;;;;;;;;;;;21.39;22.73;99371.13;4988688;28;20459;-83
2022/04/06 11:41:47;;;;;;;;;;;;;;;21.31;22.69;99363.56;4988427;28;19932;-83
2022/04/06 11:44:24;;;;;;;;;;;;;;;21.44;22.78;99356.44;4989322;28;19996;-80
2022/04/06 11:46:50;;;;;;;;;;;;;;;21.25;21.72;99350.53;4989094;28;20308;-81
2022/04/06 11:49:26;;;;;;;;;;;;;;;21.49;23.21;99348.13;4988865;28;19929;-81
2022/04/06 11:51:52;;;;;;;;;;;;;;;21.95;23.42;99352.22;4988565;28;19924;-81
2022/04/06 11:54:18;;;;;;;;;;;;;;;22.06;22.56;99346.13;4988542;28;20304;-82
2022/04/06 11:56:47;;;;;;;;;;;;;;;21.80;23.30;99340.72;4988966;28;19921;-82
2022/04/06 11:59:16;;;;;;;;;;;;;;;21.76;24.07;99340.03;4988788;28;19918;-82
2022/04/06 12:01:42;;;;;;;;;;;;;;;21.73;24.09;99336.72;4988784;28;20028;-82
2022/04/06 12:04:18;;;;;;;;;;;;;;;21.75;24.08;99335.66;5003539;28;20029;-83
2022/04/06 12:06:44;;;;;;;;;;;;;;;21.75;23.69;99329.41;4989149;28;19926;-82
2022/04/06 12:09:10;;;;;;;;;;;;;;;21.73;24.72;99328.66;4988058;28;19984;-82
2022/04/06 12:11:35;;;;;;;;;;;;;;;21.88;24.98;99332.16;4988149;28;19917;-83
2022/04/06 12:14:01;;;;;;;;;;;;;;;21.57;24.20;99327.00;4988289;28;19929;-82
2022/04/06 12:16:27;;;;;;;;;;;;;;;21.76;23.96;99315.88;4988345;28;19981;-82
2022/04/06 12:18:52;;;;;;;;;;;;;;;21.79;24.43;99314.84;4988113;28;20404;-82
2022/04/06 12:21:22;;;;;;;;;;;;;;;21.87;24.17;99311.63;4988677;28;19918;-82
2022/04/06 12:23:48;;;;;;;;;;;;;;;22.15;25.16;99300.72;4988354;28;19971;-82
2022/04/06 12:26:14;;;;;;;;;;;;;;;22.15;25.96;99294.47;4988496;28;19933;-81
2022/04/06 12:28:39;;;;;;;;;;;;;;;21.78;25.19;99291.63;4979109;28;19926;-81
2022/04/06 12:31:08;;;;;;;;;;;;;;;21.92;25.39;99288.88;4979254;28;19922;-80
2022/04/06 12:33:35;;;;;;;;;;;;;;;22.20;25.67;99286.09;4978329;28;19958;-80
2022/04/06 12:36:21;;;;;;;;;;;;;;;22.39;25.09;99285.72;4975701;28;19948;-81
2022/04/06 12:38:57;;;;;;;;;;;;;;;22.27;25.29;99272.13;4999497;28;19925;-80
2022/04/06 12:41:23;;;;;;;;;;;;;;;22.04;26.10;99281.78;4988320;28;19922;-81
2022/04/06 12:43:49;;;;;;;;;;;;;;;21.88;26.13;99276.63;4987317;28;19918;-80
2022/04/06 12:46:34;;;;;;;;;;;;;;;22.15;26.34;99281.03;5016894;28;19933;-81
2022/04/06 12:49:17;;;;;;;;;;;;;;;22.27;25.60;99280.19;4987741;28;19922;-80
2022/04/06 12:51:43;;;;;;;;;;;;;;;22.53;24.49;99266.78;4987455;28;19929;-82
2022/04/06 12:54:08;;;;;;;;;;;;;;;22.47;25.99;99256.47;4987952;28;19922;-81
2022/04/06 12:56:33;;;;;;;;;;;;;;;22.34;25.07;99253.81;4987997;28;19956;-82
2022/04/06 12:59:09;;;;;;;;;;;;;;;22.25;26.18;99252.56;4988275;28;20313;-81